MUVR/VRA METAR and TAF weather

Enter ICAO airport designator
Station Type Date Time Source
MUVR METAR 2021/07/24 19:50 UTC NOAA

MUVR 241950Z 36009KT 9000 SCT020 31/22 Q1016


Station Type Date Time Source
MUVR Decoded METAR 2021/07/24 19:50 UTC NOAA

Varadero, Matanzas, Cuba (MUVR) 23-08N 081-17W 3M
Jul 24, 2021 - 03:50 PM EDT / 2021.07.24 1950 UTC
Wind: from the N (360 degrees) at 10 MPH (9 KT):0
Visibility: 5 mile(s):0
Sky conditions: partly cloudy
Temperature: 87 F (31 C)
Heat index: 92.3 F (33.5 C):1
Dew Point: 71 F (22 C)
Relative Humidity: 58%
Pressure (altimeter): 30.00 in. Hg (1016 hPa)
ob: MUVR 241950Z 36009KT 9000 SCT020 31/22 Q1016
cycle: 20

Station Type Date Time Source
MUVR TAF 2021/07/24 18:03 UTC NOAA

TAF MUVR 241700Z 2418/2518 01008KT 9000 SCT020
BECMG 2501/2503 VRB03KT
TEMPO 2506/2512 3000 BR

Example: see airport list